Terminal Aerodrome Forecast
Issued by NWS

Home | Current Version | Previous Version | Text Only | Print | Product List | Glossary On
Versions: 1 2 3 4 5 6 7 8 9 10 11 12 13 14 15 16 17 18 19 20 21 22 23
000
FTUS42 KMLB 301720
TAFTIX
TAF
KTIX 301720Z 3018/0118 13015G21KT P6SM SCT025 BKN100
     FM010200 13013G19KT P6SM FEW025 SCT250
     FM011300 16011G19KT P6SM SCT025 SCT100 BKN250=

USA.gov is the U.S. government's official web portal to all federal, state and local government web resources and services.